createdAt,value
2022-08-02T00:01:02.680Z,688.90
2022-08-02T00:03:33.150Z,655.67
2022-08-02T00:06:00.966Z,679.58
2022-08-02T00:08:30.844Z,674.63
2022-08-02T00:10:58.544Z,668.60
2022-08-02T00:13:25.813Z,662.75
2022-08-02T00:15:53.495Z,665.75
2022-08-02T00:18:21.400Z,658.97
2022-08-02T00:20:48.684Z,668.22
2022-08-02T00:23:18.592Z,660.55
2022-08-02T00:25:54.370Z,674.35
2022-08-02T00:28:27.984Z,661.47
2022-08-02T00:30:57.407Z,667.17
2022-08-02T00:34:05.584Z,648.63
2022-08-02T00:36:13.208Z,684.38
2022-08-02T00:38:41.044Z,674.55
2022-08-02T00:41:24.016Z,665.78
2022-08-02T00:43:53.137Z,672.03
2022-08-02T00:46:20.931Z,668.05
2022-08-02T00:48:48.582Z,645.88
2022-08-02T00:51:17.766Z,646.45
2022-08-02T00:53:47.451Z,636.47
2022-08-02T00:56:14.701Z,641.78
2022-08-02T00:58:44.755Z,637.53
2022-08-02T01:01:12.592Z,631.17
2022-08-02T01:03:40.332Z,644.20
2022-08-02T01:06:11.651Z,653.42
2022-08-02T01:08:44.421Z,649.80
2022-08-02T01:11:11.867Z,644.90
2022-08-02T01:13:40.089Z,620.67
2022-08-02T01:16:22.612Z,626.60
2022-08-02T01:18:59.115Z,605.90
2022-08-02T01:21:35.309Z,611.70
2022-08-02T01:24:43.687Z,636.15
2022-08-02T01:27:29.189Z,577.65
2022-08-02T01:30:00.584Z,599.15
2022-08-02T01:32:46.811Z,565.72
2022-08-02T01:35:24.937Z,576.65
2022-08-02T01:37:58.819Z,579.40
2022-08-02T01:40:34.738Z,618.08
2022-08-02T01:43:06.683Z,576.72
2022-08-02T01:45:44.507Z,569.97
2022-08-02T01:48:13.065Z,581.80
2022-08-02T01:50:42.502Z,587.13
2022-08-02T01:53:14.076Z,593.72
2022-08-02T01:55:58.460Z,588.55
2022-08-02T01:58:33.929Z,587.85
2022-08-02T02:01:03.600Z,591.22
2022-08-02T02:03:33.679Z,577.88
2022-08-02T02:06:03.502Z,564.92
2022-08-02T02:08:35.870Z,574.88
2022-08-02T02:12:06.392Z,573.10
2022-08-02T02:13:53.169Z,597.85
2022-08-02T02:16:24.213Z,589.58
2022-08-02T02:18:53.090Z,584.95
2022-08-02T02:21:23.513Z,567.78
2022-08-02T02:23:51.100Z,574.70
2022-08-02T02:26:20.852Z,577.05
2022-08-02T02:29:04.261Z,588.53
2022-08-02T02:31:44.002Z,590.90
2022-08-02T02:34:20.881Z,550.20
2022-08-02T02:36:51.650Z,553.00
2022-08-02T02:39:24.497Z,559.22
2022-08-02T02:41:53.174Z,567.15
2022-08-02T02:44:23.072Z,563.22
2022-08-02T02:46:54.975Z,589.47
2022-08-02T02:49:24.750Z,590.17
2022-08-02T02:51:53.575Z,591.63
2022-08-02T02:54:32.210Z,572.65
2022-08-02T02:57:02.342Z,598.55
2022-08-02T02:59:30.763Z,598.03
2022-08-02T03:01:59.150Z,589.67
2022-08-02T03:04:55.444Z,619.65
2022-08-02T03:07:18.709Z,617.40
2022-08-02T03:09:53.762Z,605.65
2022-08-02T03:12:28.739Z,643.78
2022-08-02T03:15:06.180Z,621.25
2022-08-02T03:17:45.622Z,613.80
2022-08-02T03:20:18.485Z,609.40
2022-08-02T03:22:47.091Z,617.25
2022-08-02T03:25:21.075Z,624.80
2022-08-02T03:27:48.443Z,617.72
2022-08-02T03:30:18.137Z,595.70
2022-08-02T03:32:49.489Z,594.28
2022-08-02T03:35:24.215Z,593.63
2022-08-02T03:37:56.043Z,603.30
2022-08-02T03:40:24.686Z,598.17
2022-08-02T03:42:52.722Z,572.03
2022-08-02T03:45:20.918Z,599.17
2022-08-02T03:47:49.032Z,596.22
2022-08-02T03:50:17.341Z,603.70
2022-08-02T03:52:45.955Z,596.20
2022-08-02T03:55:13.597Z,564.63
2022-08-02T03:57:43.313Z,548.25
2022-08-02T04:00:17.868Z,555.67
2022-08-02T04:02:45.166Z,557.35
2022-08-02T04:05:13.090Z,581.75
2022-08-02T04:08:02.643Z,566.13
2022-08-02T04:10:28.049Z,573.13
2022-08-02T04:12:56.661Z,578.78
2022-08-02T04:15:25.151Z,540.97
2022-08-02T04:18:02.895Z,521.55
2022-08-02T04:20:36.060Z,534.15
2022-08-02T04:23:09.957Z,518.58
2022-08-02T04:25:40.583Z,553.30
2022-08-02T04:28:17.055Z,534.78
2022-08-02T04:30:52.537Z,545.95
2022-08-02T04:33:19.918Z,528.55
2022-08-02T04:35:50.083Z,534.38
2022-08-02T04:38:17.714Z,542.97
2022-08-02T04:40:55.860Z,529.00
2022-08-02T04:43:23.692Z,542.58
2022-08-02T04:45:56.974Z,537.45
2022-08-02T04:48:24.552Z,546.00
2022-08-02T04:50:52.247Z,538.67
2022-08-02T04:53:19.730Z,542.65
2022-08-02T04:55:47.290Z,539.45
2022-08-02T04:58:40.004Z,548.10
2022-08-02T05:01:04.502Z,555.50
2022-08-02T05:03:31.796Z,551.58
2022-08-02T05:06:00.663Z,553.00
2022-08-02T05:08:28.126Z,553.33
2022-08-02T05:10:55.432Z,557.88
2022-08-02T05:13:23.121Z,545.95
2022-08-02T05:15:50.622Z,560.38
2022-08-02T05:18:18.098Z,553.75
2022-08-02T05:20:45.825Z,531.38
2022-08-02T05:23:13.518Z,557.72
2022-08-02T05:25:40.760Z,546.47
2022-08-02T05:28:11.437Z,537.05
2022-08-02T05:30:42.434Z,539.30
2022-08-02T05:33:11.110Z,538.95
2022-08-02T05:35:40.520Z,535.83
2022-08-02T05:38:10.229Z,545.78
2022-08-02T05:40:37.684Z,526.40
2022-08-02T05:43:25.078Z,533.22
2022-08-02T05:45:53.605Z,525.47
2022-08-02T05:48:26.539Z,533.65
2022-08-02T05:51:08.994Z,532.03
2022-08-02T05:54:03.619Z,539.05
2022-08-02T05:56:37.934Z,537.65
2022-08-02T05:59:37.899Z,540.13
2022-08-02T06:02:33.758Z,521.03
2022-08-02T06:05:15.512Z,543.08
2022-08-02T06:07:44.675Z,546.08
2022-08-02T06:10:14.984Z,545.70
2022-08-02T06:12:51.979Z,573.15
2022-08-02T06:15:20.037Z,533.55
2022-08-02T06:17:48.123Z,571.92
2022-08-02T06:20:20.278Z,581.88
2022-08-02T06:22:48.545Z,607.28
2022-08-02T06:25:49.778Z,610.28
2022-08-02T06:28:10.652Z,637.33
2022-08-02T06:33:06.427Z,662.72
2022-08-02T06:36:00.982Z,667.67
2022-08-02T06:38:34.315Z,657.28
2022-08-02T06:41:06.181Z,636.83
2022-08-02T06:43:56.554Z,633.80
2022-08-02T06:47:10.446Z,666.17
2022-08-02T06:49:11.944Z,648.60
2022-08-02T06:51:39.291Z,646.83
2022-08-02T06:54:07.179Z,629.08
2022-08-02T06:56:34.745Z,632.72
2022-08-02T06:59:05.842Z,602.35
2022-08-02T07:01:38.694Z,527.47
2022-08-02T07:04:06.531Z,472.70
2022-08-02T07:06:34.343Z,482.35
2022-08-02T07:09:20.184Z,529.85
2022-08-02T07:11:48.490Z,536.63
2022-08-02T07:14:16.233Z,505.40
2022-08-02T07:16:43.509Z,585.35
2022-08-02T07:19:13.917Z,609.60
2022-08-02T07:21:56.845Z,632.22
2022-08-02T07:24:27.231Z,642.70
2022-08-02T07:27:10.350Z,646.40
2022-08-02T07:29:46.601Z,663.53
2022-08-02T07:32:19.185Z,666.33
2022-08-02T07:34:51.228Z,652.42
2022-08-02T07:37:54.115Z,631.22
2022-08-02T07:40:20.988Z,651.17
2022-08-02T07:42:56.454Z,639.08
2022-08-02T07:45:27.578Z,628.10
2022-08-02T07:48:00.570Z,593.25
2022-08-02T07:50:28.578Z,587.90
2022-08-02T07:52:58.377Z,603.20
2022-08-02T07:55:39.055Z,615.17
2022-08-02T07:58:12.763Z,601.80
2022-08-02T08:03:14.381Z,638.47
2022-08-02T08:05:42.180Z,639.72
2022-08-02T08:08:15.028Z,629.63
2022-08-02T08:10:44.236Z,640.67
2022-08-02T08:13:11.629Z,631.88
2022-08-02T08:15:38.979Z,657.63
2022-08-02T08:18:06.438Z,653.28
2022-08-02T08:20:33.778Z,651.47
2022-08-02T08:23:01.374Z,638.70
2022-08-02T08:25:28.694Z,632.20
2022-08-02T08:27:59.268Z,640.10
2022-08-02T08:30:26.960Z,644.97
2022-08-02T08:32:58.967Z,624.53
2022-08-02T08:35:26.287Z,613.55
2022-08-02T08:37:56.069Z,604.38
2022-08-02T08:40:25.544Z,602.97
2022-08-02T08:42:52.924Z,606.85
2022-08-02T08:45:20.177Z,616.63
2022-08-02T08:47:53.188Z,608.33
2022-08-02T08:50:25.400Z,590.97
2022-08-02T08:53:03.667Z,594.00
2022-08-02T08:55:35.232Z,591.75
2022-08-02T08:58:04.565Z,594.28
2022-08-02T09:00:35.555Z,608.03
2022-08-02T09:03:06.369Z,613.25
2022-08-02T09:05:43.392Z,587.08
2022-08-02T09:08:16.376Z,600.25
2022-08-02T09:10:46.288Z,605.35
2022-08-02T09:13:45.558Z,606.67
2022-08-02T09:16:14.636Z,593.67
2022-08-02T09:18:45.168Z,620.58
2022-08-02T09:21:14.835Z,619.25
2022-08-02T09:23:51.567Z,640.42
2022-08-02T09:26:23.767Z,628.83
2022-08-02T09:28:53.077Z,614.60
2022-08-02T09:31:22.892Z,613.85
2022-08-02T09:34:00.719Z,583.83
2022-08-02T09:36:41.127Z,585.40
2022-08-02T09:39:11.402Z,598.80
2022-08-02T09:41:43.366Z,610.55
2022-08-02T09:44:15.947Z,592.45
2022-08-02T09:46:45.902Z,602.63
2022-08-02T09:49:21.857Z,602.83
2022-08-02T09:51:53.415Z,617.97
2022-08-02T09:54:33.010Z,607.90
2022-08-02T09:57:02.402Z,597.40
2022-08-02T09:59:30.061Z,596.55
2022-08-02T10:02:02.627Z,598.30
2022-08-02T10:04:34.439Z,607.97
2022-08-02T10:07:23.091Z,608.22
2022-08-02T10:09:51.804Z,590.15
2022-08-02T10:12:23.625Z,591.67
2022-08-02T10:14:54.415Z,586.95
2022-08-02T10:17:25.273Z,572.42
2022-08-02T10:20:02.212Z,585.25
2022-08-02T10:22:34.012Z,590.65
2022-08-02T10:25:04.343Z,582.75
2022-08-02T10:27:55.166Z,589.25
2022-08-02T10:30:24.485Z,588.30
2022-08-02T10:32:55.951Z,595.65
2022-08-02T10:35:26.206Z,595.88
2022-08-02T10:38:03.891Z,574.65
2022-08-02T10:40:49.132Z,602.90
2022-08-02T10:43:34.277Z,594.97
2022-08-02T10:46:36.099Z,597.72
2022-08-02T10:49:37.878Z,573.42
2022-08-02T10:51:59.516Z,584.85
2022-08-02T10:54:35.075Z,578.30
2022-08-02T10:57:04.913Z,570.28
2022-08-02T10:59:36.968Z,565.53
2022-08-02T11:02:06.864Z,603.30
2022-08-02T11:04:40.125Z,588.78
2022-08-02T11:09:40.090Z,581.70
2022-08-02T11:12:15.042Z,596.97
2022-08-02T11:14:59.761Z,582.72
2022-08-02T11:17:28.989Z,614.33
2022-08-02T11:20:08.894Z,619.00
2022-08-02T11:22:36.787Z,623.50
2022-08-02T11:26:03.261Z,621.80
2022-08-02T11:28:26.893Z,627.58
2022-08-02T11:31:01.537Z,634.85
2022-08-02T11:33:32.314Z,639.35
2022-08-02T11:36:07.406Z,631.97
2022-08-02T11:38:34.854Z,641.42
2022-08-02T11:41:06.191Z,615.08
2022-08-02T11:43:37.824Z,616.17
2022-08-02T11:46:13.346Z,610.90
2022-08-02T11:48:44.654Z,616.13
2022-08-02T11:51:16.906Z,620.08
2022-08-02T11:53:58.407Z,631.13
2022-08-02T11:56:42.840Z,647.22
2022-08-02T11:59:12.966Z,631.28
2022-08-02T12:01:45.466Z,641.22
2022-08-02T12:04:22.667Z,617.15
2022-08-02T12:06:59.215Z,601.17
2022-08-02T12:09:31.472Z,609.42
2022-08-02T12:12:00.927Z,579.23
2022-08-02T12:14:33.401Z,597.55
2022-08-02T12:17:19.140Z,579.80
2022-08-02T12:19:49.332Z,573.30
2022-08-02T12:22:29.944Z,570.63
2022-08-02T12:24:58.549Z,575.13
2022-08-02T12:27:43.503Z,570.05
2022-08-02T12:30:16.231Z,542.42
2022-08-02T12:32:47.374Z,564.75
2022-08-02T12:35:26.539Z,556.70
2022-08-02T12:37:54.374Z,561.97
2022-08-02T12:40:34.133Z,540.60
2022-08-02T12:43:06.533Z,547.63
2022-08-02T12:45:56.014Z,523.83
2022-08-02T12:48:52.342Z,518.58
2022-08-02T12:51:56.568Z,538.92
2022-08-02T12:54:32.119Z,545.70
2022-08-02T12:57:19.913Z,549.42
2022-08-02T12:59:55.155Z,555.63
2022-08-02T13:02:22.588Z,544.00
2022-08-02T13:04:51.005Z,563.00
2022-08-02T13:07:19.289Z,567.47
2022-08-02T13:09:48.590Z,570.85
2022-08-02T13:12:18.645Z,581.08
2022-08-02T13:14:50.545Z,583.70
2022-08-02T13:17:17.874Z,576.42
2022-08-02T13:19:45.143Z,606.15
2022-08-02T13:24:55.924Z,554.70
2022-08-02T13:27:27.357Z,573.67
2022-08-02T13:29:56.395Z,583.08
2022-08-02T13:32:25.347Z,580.70
2022-08-02T13:34:53.023Z,575.72
2022-08-02T13:37:20.801Z,597.17
2022-08-02T13:40:06.016Z,589.03
2022-08-02T13:42:35.466Z,573.58
2022-08-02T13:45:12.565Z,584.75
2022-08-02T13:48:04.527Z,584.05
2022-08-02T13:50:35.068Z,559.85
2022-08-02T13:53:02.447Z,589.13
2022-08-02T13:55:29.826Z,594.97
2022-08-02T13:57:57.751Z,609.25
2022-08-02T14:00:34.646Z,634.15
2022-08-02T14:03:07.730Z,626.00
2022-08-02T14:05:48.235Z,624.75
2022-08-02T14:08:23.580Z,626.65
2022-08-02T14:10:51.975Z,615.22
2022-08-02T14:13:19.865Z,615.38
2022-08-02T14:15:47.517Z,626.60
2022-08-02T14:18:15.409Z,635.38
2022-08-02T14:20:47.507Z,643.95
2022-08-02T14:23:17.787Z,627.25
2022-08-02T14:25:45.073Z,647.70
2022-08-02T14:28:12.376Z,635.90
2022-08-02T14:30:39.865Z,651.22
2022-08-02T14:33:07.237Z,636.00
2022-08-02T14:35:35.018Z,631.20
2022-08-02T14:38:02.307Z,662.85
2022-08-02T14:40:31.806Z,632.67
2022-08-02T14:43:03.243Z,632.33
2022-08-02T14:45:40.503Z,654.70
2022-08-02T14:48:10.659Z,635.05
2022-08-02T14:50:38.494Z,620.35
2022-08-02T14:53:06.216Z,631.03
2022-08-02T14:55:40.864Z,641.20
2022-08-02T14:58:13.859Z,631.83
2022-08-02T15:00:42.104Z,636.35
2022-08-02T15:03:12.317Z,642.83
2022-08-02T15:05:40.161Z,633.08
2022-08-02T15:08:08.040Z,626.50
2022-08-02T15:10:35.895Z,626.70
2022-08-02T15:13:03.836Z,627.80
2022-08-02T15:15:31.158Z,596.38
2022-08-02T15:17:58.637Z,618.58
2022-08-02T15:20:30.433Z,583.28
2022-08-02T15:23:04.209Z,588.17
2022-08-02T15:25:31.518Z,603.47
2022-08-02T15:27:58.766Z,597.50
2022-08-02T15:30:26.155Z,605.30
2022-08-02T15:32:56.395Z,606.47
2022-08-02T15:35:23.943Z,569.50
2022-08-02T15:37:54.279Z,583.53
2022-08-02T15:40:23.141Z,571.08
2022-08-02T15:42:53.038Z,560.42
2022-08-02T15:45:22.708Z,549.53
2022-08-02T15:47:50.807Z,568.47
2022-08-02T15:50:20.999Z,573.42
2022-08-02T15:52:48.285Z,573.72
2022-08-02T15:55:15.852Z,577.15
2022-08-02T15:57:43.682Z,570.75
2022-08-02T16:00:18.004Z,579.60
2022-08-02T16:02:48.933Z,558.08
2022-08-02T16:05:18.191Z,582.30
2022-08-02T16:07:46.222Z,571.22
2022-08-02T16:10:15.032Z,569.03
2022-08-02T16:12:45.329Z,572.28
2022-08-02T16:15:14.982Z,591.20
2022-08-02T16:17:51.563Z,572.85
2022-08-02T16:20:22.246Z,581.15
2022-08-02T16:22:52.293Z,587.95
2022-08-02T16:25:22.133Z,585.78
2022-08-02T16:28:00.191Z,570.35
2022-08-02T16:30:36.709Z,561.78
2022-08-02T16:33:06.428Z,593.05
2022-08-02T16:35:34.917Z,578.90
2022-08-02T16:38:04.928Z,585.15
2022-08-02T16:40:34.289Z,579.92
2022-08-02T16:43:01.989Z,580.78
2022-08-02T16:45:36.317Z,566.22
2022-08-02T16:48:05.375Z,595.55
2022-08-02T16:50:33.440Z,577.90
2022-08-02T16:53:07.101Z,582.33
2022-08-02T16:55:35.023Z,565.83
2022-08-02T16:58:09.768Z,574.55
2022-08-02T17:00:38.196Z,574.45
2022-08-02T17:03:16.552Z,573.10
2022-08-02T17:05:56.690Z,585.50
2022-08-02T17:08:28.800Z,574.55
2022-08-02T17:11:03.106Z,594.08
2022-08-02T17:13:52.110Z,592.50
2022-08-02T17:16:26.096Z,575.22
2022-08-02T17:18:59.842Z,603.00
2022-08-02T17:21:31.844Z,577.85
2022-08-02T17:24:07.901Z,579.80
2022-08-02T17:26:41.121Z,580.15
2022-08-02T17:29:15.685Z,583.78
2022-08-02T17:32:05.325Z,585.53
2022-08-02T17:34:39.249Z,581.00
2022-08-02T17:37:09.429Z,603.38
2022-08-02T17:39:44.305Z,584.00
2022-08-02T17:42:24.722Z,594.57
2022-08-02T17:44:54.287Z,592.10
2022-08-02T17:47:22.455Z,600.33
2022-08-02T17:49:52.869Z,589.95
2022-08-02T17:52:50.833Z,574.30
2022-08-02T17:55:21.069Z,592.90
2022-08-02T17:57:56.966Z,604.22
2022-08-02T18:00:36.200Z,591.47
2022-08-02T18:03:08.039Z,578.22
2022-08-02T18:05:41.656Z,579.15
2022-08-02T18:08:23.737Z,601.08
2022-08-02T18:10:54.772Z,607.97
2022-08-02T18:13:25.291Z,610.83
2022-08-02T18:15:57.392Z,609.95
2022-08-02T18:18:29.567Z,607.40
2022-08-02T18:21:16.045Z,624.78
2022-08-02T18:26:38.176Z,600.88
2022-08-02T18:29:06.654Z,616.00
2022-08-02T18:31:39.534Z,625.53
2022-08-02T18:34:09.704Z,628.83
2022-08-02T18:36:37.051Z,613.28
2022-08-02T18:39:15.496Z,620.00
2022-08-02T18:41:44.343Z,616.20
2022-08-02T18:44:19.191Z,644.22
2022-08-02T18:46:46.879Z,647.40
2022-08-02T18:49:19.264Z,633.47
2022-08-02T18:51:46.584Z,640.65
2022-08-02T18:54:16.245Z,632.25
2022-08-02T18:56:54.334Z,633.35
2022-08-02T18:59:22.133Z,637.10
2022-08-02T19:01:51.544Z,652.10
2022-08-02T19:04:27.029Z,638.67
2022-08-02T19:06:56.228Z,650.33
2022-08-02T19:09:23.964Z,644.75
2022-08-02T19:11:53.368Z,629.30
2022-08-02T19:14:27.379Z,630.05
2022-08-02T19:17:00.437Z,633.90
2022-08-02T19:19:44.210Z,641.92
2022-08-02T19:22:16.035Z,636.08
2022-08-02T19:24:45.948Z,638.88
2022-08-02T19:27:19.672Z,645.75
2022-08-02T19:29:53.776Z,636.05
2022-08-02T19:32:42.721Z,641.55
2022-08-02T19:35:15.267Z,633.47
2022-08-02T19:38:05.361Z,630.55
2022-08-02T19:40:33.244Z,612.40
2022-08-02T19:44:26.775Z,638.20
2022-08-02T19:45:49.816Z,618.08
2022-08-02T19:48:24.194Z,644.17
2022-08-02T19:51:00.483Z,632.15
2022-08-02T19:53:47.580Z,627.90
2022-08-02T19:56:21.184Z,652.67
2022-08-02T19:58:54.090Z,636.05
2022-08-02T20:01:36.620Z,636.40
2022-08-02T20:04:07.697Z,641.55
2022-08-02T20:06:45.062Z,626.33
2022-08-02T20:09:21.301Z,610.28
2022-08-02T20:11:54.393Z,600.00
2022-08-02T20:14:38.121Z,597.65
2022-08-02T20:17:11.273Z,584.13
2022-08-02T20:22:08.959Z,620.42
2022-08-02T20:24:39.389Z,600.63
2022-08-02T20:27:07.436Z,582.85
2022-08-02T20:29:43.099Z,575.65
2022-08-02T20:32:14.647Z,582.63
2022-08-02T20:34:42.256Z,568.20
2022-08-02T20:38:00.303Z,579.92
2022-08-02T20:39:56.760Z,592.25
2022-08-02T20:42:24.793Z,574.63
2022-08-02T20:44:55.973Z,555.33
2022-08-02T20:47:27.551Z,581.67
2022-08-02T20:50:17.124Z,566.05
2022-08-02T20:52:47.895Z,581.53
2022-08-02T20:55:17.006Z,576.08
2022-08-02T20:58:00.597Z,580.30
2022-08-02T21:00:29.681Z,575.65
2022-08-02T21:02:58.244Z,568.58
2022-08-02T21:05:43.488Z,573.40
2022-08-02T21:08:15.681Z,576.85
2022-08-02T21:10:52.146Z,590.72
2022-08-02T21:13:24.354Z,602.15
2022-08-02T21:15:56.945Z,617.22
2022-08-02T21:18:36.887Z,616.33
2022-08-02T21:21:10.697Z,618.40
2022-08-02T21:23:48.977Z,621.97
2022-08-02T21:26:27.813Z,610.05
2022-08-02T21:29:00.663Z,608.38
2022-08-02T21:31:32.063Z,609.92
2022-08-02T21:34:01.647Z,590.60
2022-08-02T21:36:32.766Z,596.58
2022-08-02T21:39:04.735Z,616.10
2022-08-02T21:41:46.640Z,595.30
2022-08-02T21:44:16.825Z,576.60
2022-08-02T21:46:51.980Z,582.40
2022-08-02T21:49:26.966Z,589.17
2022-08-02T21:51:54.994Z,576.38
2022-08-02T21:54:23.141Z,593.85
2022-08-02T21:56:53.093Z,578.78
2022-08-02T21:59:25.261Z,589.75
2022-08-02T22:01:59.392Z,562.00
2022-08-02T22:04:26.889Z,571.35
2022-08-02T22:06:57.549Z,594.03
2022-08-02T22:09:44.649Z,597.22
2022-08-02T22:12:18.301Z,587.47
2022-08-02T22:14:53.806Z,600.33
2022-08-02T22:17:51.490Z,573.05
2022-08-02T22:20:19.686Z,588.15
2022-08-02T22:22:50.077Z,572.70
2022-08-02T22:25:36.750Z,530.80
2022-08-02T22:28:38.341Z,520.55
2022-08-02T22:31:04.801Z,513.05
2022-08-02T22:34:00.270Z,525.10
2022-08-02T22:36:30.720Z,611.97
2022-08-02T22:38:59.190Z,543.22
2022-08-02T22:42:01.153Z,532.45
2022-08-02T22:44:18.465Z,509.17
2022-08-02T22:46:46.899Z,509.52
2022-08-02T22:49:38.901Z,515.55
2022-08-02T22:52:05.632Z,508.92
2022-08-02T22:54:33.029Z,520.60
2022-08-02T22:57:03.316Z,539.97
2022-08-02T22:58:58.831Z,623.33
2022-08-02T22:59:39.414Z,558.35
2022-08-02T23:02:08.209Z,548.63
2022-08-02T23:04:36.670Z,533.13
2022-08-02T23:07:04.840Z,546.72
2022-08-02T23:09:32.265Z,553.90
2022-08-02T23:11:59.633Z,567.78
2022-08-02T23:14:26.972Z,552.30
2022-08-02T23:17:12.677Z,542.38
2022-08-02T23:19:52.122Z,538.10
2022-08-02T23:22:29.441Z,564.88
2022-08-02T23:25:01.010Z,545.80
2022-08-02T23:27:29.345Z,520.75
2022-08-02T23:29:56.756Z,534.80
2022-08-02T23:32:25.699Z,529.17
2022-08-02T23:34:56.593Z,548.67
2022-08-02T23:37:25.158Z,543.78
2022-08-02T23:39:52.539Z,534.90
2022-08-02T23:42:25.120Z,542.78
2022-08-02T23:44:53.416Z,538.97
2022-08-02T23:47:23.202Z,528.83
2022-08-02T23:49:54.947Z,534.30
2022-08-02T23:52:24.895Z,525.05
2022-08-02T23:54:52.658Z,526.30
2022-08-02T23:57:21.600Z,530.67
2022-08-02T23:59:51.311Z,543.50
